createdAt,value
2019-02-21T00:00:53.702Z,12.00
2019-02-21T00:01:53.682Z,12.00
2019-02-21T00:02:53.680Z,12.00
2019-02-21T00:03:53.697Z,12.00
2019-02-21T00:04:53.651Z,12.00
2019-02-21T00:05:53.643Z,12.00
2019-02-21T00:06:53.632Z,12.00
2019-02-21T00:07:53.626Z,12.00
2019-02-21T00:08:53.617Z,12.00
2019-02-21T00:09:53.646Z,12.00
2019-02-21T00:10:53.595Z,12.00
2019-02-21T00:11:53.583Z,12.00
2019-02-21T00:12:53.682Z,12.00
2019-02-21T00:13:53.568Z,12.00
2019-02-21T00:14:53.555Z,12.00
2019-02-21T00:15:53.726Z,12.00
2019-02-21T00:16:53.529Z,12.00
2019-02-21T00:17:53.519Z,12.00
2019-02-21T00:18:53.513Z,12.00
2019-02-21T00:19:53.499Z,12.00
2019-02-21T00:20:53.493Z,12.00
2019-02-21T00:21:53.530Z,12.00
2019-02-21T00:23:03.402Z,12.00
2019-02-21T00:23:53.465Z,12.00
2019-02-21T00:24:53.449Z,12.00
2019-02-21T00:25:55.758Z,12.00
2019-02-21T00:26:53.431Z,12.00
2019-02-21T00:27:53.459Z,12.00
2019-02-21T00:28:53.409Z,12.00
2019-02-21T00:29:53.399Z,12.00
2019-02-21T00:30:53.398Z,12.00
2019-02-21T00:31:53.382Z,12.00
2019-02-21T00:32:53.368Z,12.00
2019-02-21T00:33:53.395Z,12.00
2019-02-21T00:34:53.349Z,12.00
2019-02-21T00:35:53.344Z,12.00
2019-02-21T00:36:53.326Z,12.00
2019-02-21T00:37:53.317Z,12.00
2019-02-21T00:38:53.311Z,12.00
2019-02-21T00:39:53.332Z,12.00
2019-02-21T00:40:53.283Z,12.00
2019-02-21T00:41:53.286Z,12.00
2019-02-21T00:42:53.273Z,12.00
2019-02-21T00:43:53.256Z,12.00
2019-02-21T00:44:53.243Z,12.00
2019-02-21T00:45:53.277Z,12.00
2019-02-21T00:46:53.223Z,12.00
2019-02-21T00:47:53.248Z,12.00
2019-02-21T00:48:53.203Z,12.00
2019-02-21T00:49:53.194Z,12.00
2019-02-21T00:50:53.184Z,12.00
2019-02-21T00:51:53.211Z,12.00
2019-02-21T00:52:53.159Z,12.00
2019-02-21T00:54:05.116Z,12.00
2019-02-21T00:54:53.137Z,12.00
2019-02-21T00:55:53.133Z,12.00
2019-02-21T00:56:53.127Z,12.00
2019-02-21T00:57:53.283Z,12.00
2019-02-21T00:58:53.110Z,12.00
2019-02-21T00:59:53.098Z,12.00
2019-02-21T01:00:53.081Z,12.00
2019-02-21T01:01:53.079Z,12.00
2019-02-21T01:02:53.057Z,12.00
2019-02-21T01:03:53.069Z,12.00
2019-02-21T01:04:53.041Z,12.00
2019-02-21T01:05:53.029Z,12.00
2019-02-21T01:06:53.029Z,12.00
2019-02-21T01:07:53.011Z,12.00
2019-02-21T01:08:52.998Z,12.00
2019-02-21T01:09:53.003Z,12.00
2019-02-21T01:10:52.978Z,12.00
2019-02-21T01:11:52.969Z,12.00
2019-02-21T01:12:52.963Z,12.00
2019-02-21T01:13:52.952Z,12.00
2019-02-21T01:14:52.940Z,12.00
2019-02-21T01:15:53.096Z,12.00
2019-02-21T01:16:52.923Z,12.00
2019-02-21T01:17:52.908Z,12.00
2019-02-21T01:18:52.994Z,12.00
2019-02-21T01:19:52.888Z,12.00
2019-02-21T01:20:52.879Z,12.00
2019-02-21T01:21:52.904Z,12.00
2019-02-21T01:22:52.860Z,12.00
2019-02-21T01:23:52.851Z,12.00
2019-02-21T01:25:03.084Z,12.00
2019-02-21T01:25:52.831Z,12.00
2019-02-21T01:26:52.819Z,12.00
2019-02-21T01:27:52.844Z,12.00
2019-02-21T01:28:52.801Z,12.00
2019-02-21T01:29:52.799Z,12.00
2019-02-21T01:30:57.070Z,12.00
2019-02-21T01:31:52.771Z,12.00
2019-02-21T01:32:52.763Z,12.00
2019-02-21T01:33:52.788Z,12.00
2019-02-21T01:34:52.736Z,12.00
2019-02-21T01:35:52.730Z,12.00
2019-02-21T01:36:52.722Z,12.00
2019-02-21T01:37:52.719Z,12.00
2019-02-21T01:38:52.693Z,12.00
2019-02-21T01:39:52.721Z,12.00
2019-02-21T01:40:52.673Z,12.00
2019-02-21T01:41:52.671Z,12.00
2019-02-21T01:42:52.660Z,12.00
2019-02-21T01:43:52.653Z,12.00
2019-02-21T01:44:52.641Z,12.00
2019-02-21T01:45:52.663Z,12.00
2019-02-21T01:46:52.617Z,12.00
2019-02-21T01:47:52.608Z,12.00
2019-02-21T01:48:52.593Z,12.00
2019-02-21T01:49:52.599Z,12.00
2019-02-21T01:50:52.580Z,12.00
2019-02-21T01:51:52.610Z,12.00
2019-02-21T01:52:52.552Z,12.00
2019-02-21T01:53:52.550Z,12.00
2019-02-21T01:54:52.540Z,12.00
2019-02-21T01:56:02.900Z,12.00
2019-02-21T01:56:52.518Z,12.00
2019-02-21T01:57:52.607Z,12.00
2019-02-21T01:58:52.492Z,12.00
2019-02-21T01:59:52.484Z,12.00
2019-02-21T02:00:52.487Z,12.00
2019-02-21T02:01:52.464Z,12.00
2019-02-21T02:02:52.461Z,12.00
2019-02-21T02:03:52.620Z,12.00
2019-02-21T02:04:52.440Z,12.00
2019-02-21T02:05:52.426Z,12.00
2019-02-21T02:06:52.416Z,12.00
2019-02-21T02:07:52.407Z,12.00
2019-02-21T02:08:52.392Z,12.00
2019-02-21T02:09:52.432Z,12.00
2019-02-21T02:10:52.373Z,12.00
2019-02-21T02:11:52.383Z,12.00
2019-02-21T02:12:52.356Z,12.00
2019-02-21T02:13:52.342Z,12.00
2019-02-21T02:14:52.338Z,12.00
2019-02-21T02:15:52.500Z,12.00
2019-02-21T02:16:52.314Z,12.00
2019-02-21T02:17:52.304Z,12.00
2019-02-21T02:18:52.294Z,12.00
2019-02-21T02:19:52.282Z,12.00
2019-02-21T02:20:52.277Z,12.00
2019-02-21T02:21:52.318Z,12.00
2019-02-21T02:22:52.253Z,12.00
2019-02-21T02:23:52.242Z,12.00
2019-02-21T02:24:53.103Z,12.00
2019-02-21T02:25:52.224Z,12.00
2019-02-21T02:27:02.678Z,12.00
2019-02-21T02:27:52.204Z,12.00
2019-02-21T02:28:52.196Z,12.00
2019-02-21T02:29:52.183Z,12.00
2019-02-21T02:30:52.175Z,12.00
2019-02-21T02:31:52.173Z,12.00
2019-02-21T02:32:52.192Z,12.00
2019-02-21T02:33:52.143Z,12.00
2019-02-21T02:34:52.151Z,12.00
2019-02-21T02:35:52.122Z,12.00
2019-02-21T02:36:52.117Z,12.00
2019-02-21T02:37:52.101Z,12.00
2019-02-21T02:38:52.138Z,12.00
2019-02-21T02:39:52.096Z,12.00
2019-02-21T02:40:52.080Z,12.00
2019-02-21T02:41:52.065Z,12.00
2019-02-21T02:42:52.052Z,12.00
2019-02-21T02:43:52.042Z,12.00
2019-02-21T02:44:52.072Z,12.00
2019-02-21T02:45:52.030Z,12.00
2019-02-21T02:46:52.012Z,12.00
2019-02-21T02:47:52.001Z,12.00
2019-02-21T02:48:51.999Z,12.00
2019-02-21T02:49:51.989Z,12.00
2019-02-21T02:50:52.014Z,12.00
2019-02-21T02:51:51.981Z,12.00
2019-02-21T02:52:51.959Z,12.00
2019-02-21T02:53:51.948Z,12.00
2019-02-21T02:54:51.933Z,12.00
2019-02-21T02:55:51.922Z,12.00
2019-02-21T02:56:51.952Z,12.00
2019-02-21T02:58:01.724Z,12.00
2019-02-21T02:58:51.894Z,12.00
2019-02-21T02:59:51.883Z,12.00
2019-02-21T03:00:51.878Z,12.00
2019-02-21T03:01:51.866Z,12.00
2019-02-21T03:02:51.901Z,12.00
2019-02-21T03:03:51.843Z,12.00
2019-02-21T03:04:51.842Z,12.00
2019-02-21T03:05:51.830Z,12.00
2019-02-21T03:06:51.818Z,12.00
2019-02-21T03:07:51.808Z,12.00
2019-02-21T03:08:51.827Z,12.00
2019-02-21T03:09:51.784Z,12.00
2019-02-21T03:10:51.793Z,12.00
2019-02-21T03:11:52.272Z,12.00
2019-02-21T03:12:51.753Z,12.00
2019-02-21T03:13:51.742Z,12.00
2019-02-21T03:14:51.902Z,12.00
2019-02-21T03:15:51.721Z,12.00
2019-02-21T03:16:51.717Z,12.00
2019-02-21T03:17:51.707Z,12.00
2019-02-21T03:18:51.700Z,12.00
2019-02-21T03:19:51.683Z,12.00
2019-02-21T03:20:51.712Z,12.00
2019-02-21T03:21:51.662Z,12.00
2019-02-21T03:22:51.657Z,12.00
2019-02-21T03:23:51.648Z,12.00
2019-02-21T03:24:51.633Z,12.00
2019-02-21T03:25:51.620Z,12.00
2019-02-21T03:26:51.675Z,12.00
2019-02-21T03:27:51.606Z,12.00
2019-02-21T03:29:02.215Z,12.00
2019-02-21T03:29:51.577Z,12.00
2019-02-21T03:30:51.571Z,12.00
2019-02-21T03:31:54.973Z,12.00
2019-02-21T03:32:51.599Z,12.00
2019-02-21T03:33:51.565Z,12.00
2019-02-21T03:34:51.530Z,12.00
2019-02-21T03:35:51.531Z,12.00
2019-02-21T03:36:51.531Z,12.00
2019-02-21T03:37:51.525Z,12.00
2019-02-21T03:38:51.527Z,12.00
2019-02-21T03:39:51.478Z,12.00
2019-02-21T03:40:51.469Z,12.00
2019-02-21T03:41:51.471Z,12.00
2019-02-21T03:42:51.455Z,12.00
2019-02-21T03:43:51.442Z,12.00
2019-02-21T03:44:51.449Z,12.00
2019-02-21T03:45:51.419Z,12.00
2019-02-21T03:46:51.416Z,12.00
2019-02-21T03:47:51.406Z,12.00
2019-02-21T03:48:51.391Z,12.00
2019-02-21T03:49:51.384Z,12.00
2019-02-21T03:50:51.406Z,12.00
2019-02-21T03:51:51.358Z,12.00
2019-02-21T03:52:51.351Z,12.00
2019-02-21T03:53:51.347Z,12.00
2019-02-21T03:54:51.326Z,12.00
2019-02-21T03:55:51.328Z,12.00
2019-02-21T03:56:51.350Z,12.00
2019-02-21T03:57:51.295Z,12.00
2019-02-21T03:58:51.289Z,12.00
2019-02-21T04:00:01.331Z,12.00
2019-02-21T04:00:51.266Z,12.00
2019-02-21T04:01:51.280Z,12.00
2019-02-21T04:02:51.281Z,12.00
2019-02-21T04:03:51.237Z,12.00
2019-02-21T04:04:51.245Z,12.00
2019-02-21T04:05:51.216Z,12.00
2019-02-21T04:06:51.211Z,12.00
2019-02-21T04:07:51.199Z,12.00
2019-02-21T04:08:51.237Z,12.00
2019-02-21T04:09:51.181Z,12.00
2019-02-21T04:10:51.183Z,12.00
2019-02-21T04:11:51.161Z,12.00
2019-02-21T04:12:51.222Z,12.00
2019-02-21T04:13:51.139Z,12.00
2019-02-21T04:14:51.223Z,12.00
2019-02-21T04:15:51.122Z,12.00
2019-02-21T04:16:51.116Z,12.00
2019-02-21T04:17:51.148Z,12.00
2019-02-21T04:18:51.092Z,12.00
2019-02-21T04:19:51.156Z,12.00
2019-02-21T04:20:51.101Z,12.00
2019-02-21T04:21:51.120Z,12.00
2019-02-21T04:22:51.053Z,12.00
2019-02-21T04:23:51.037Z,12.00
2019-02-21T04:24:51.030Z,16.00
2019-02-21T04:25:51.025Z,12.00
2019-02-21T04:26:51.044Z,12.00
2019-02-21T04:27:50.996Z,12.00
2019-02-21T04:28:51.023Z,12.00
2019-02-21T04:29:50.977Z,12.00
2019-02-21T04:31:01.474Z,12.00
2019-02-21T04:31:50.955Z,12.00
2019-02-21T04:32:51.036Z,12.00
2019-02-21T04:33:50.936Z,12.00
2019-02-21T04:34:50.932Z,12.00
2019-02-21T04:35:50.918Z,12.00
2019-02-21T04:36:50.914Z,12.00
2019-02-21T04:37:50.898Z,12.00
2019-02-21T04:38:51.057Z,12.00
2019-02-21T04:39:50.886Z,16.00
2019-02-21T04:40:50.863Z,12.00
2019-02-21T04:41:50.855Z,16.00
2019-02-21T04:42:50.843Z,16.00
2019-02-21T04:43:50.832Z,16.00
2019-02-21T04:44:50.879Z,16.00
2019-02-21T04:45:50.816Z,16.00
2019-02-21T04:46:50.802Z,16.00
2019-02-21T04:47:50.792Z,16.00
2019-02-21T04:48:50.785Z,12.00
2019-02-21T04:49:50.819Z,12.00
2019-02-21T04:50:50.954Z,16.00
2019-02-21T04:51:50.750Z,16.00
2019-02-21T04:52:50.746Z,16.00
2019-02-21T04:53:50.749Z,20.00
2019-02-21T04:54:50.725Z,16.00
2019-02-21T04:55:50.712Z,16.00
2019-02-21T04:56:50.759Z,20.00
2019-02-21T04:57:50.693Z,16.00
2019-02-21T04:58:50.682Z,20.00
2019-02-21T04:59:50.684Z,20.00
2019-02-21T05:00:50.659Z,20.00
2019-02-21T05:02:01.875Z,20.00
2019-02-21T05:02:50.642Z,24.00
2019-02-21T05:03:50.636Z,24.00
2019-02-21T05:04:50.620Z,28.00
2019-02-21T05:05:50.612Z,28.00
2019-02-21T05:06:50.618Z,32.00
2019-02-21T05:07:50.762Z,36.00
2019-02-21T05:08:50.579Z,36.00
2019-02-21T05:09:57.918Z,44.00
2019-02-21T05:10:51.563Z,48.00
2019-02-21T05:11:50.549Z,52.00
2019-02-21T05:12:50.544Z,60.00
2019-02-21T05:13:50.566Z,64.00
2019-02-21T05:14:50.523Z,72.00
2019-02-21T05:15:50.510Z,76.00
2019-02-21T05:16:50.501Z,88.00
2019-02-21T05:17:50.491Z,96.00
2019-02-21T05:18:50.483Z,108.00
2019-02-21T05:19:50.503Z,116.00
2019-02-21T05:20:50.464Z,132.00
2019-02-21T05:21:50.445Z,144.00
2019-02-21T05:22:50.438Z,160.00
2019-02-21T05:23:50.429Z,176.00
2019-02-21T05:24:50.422Z,192.00
2019-02-21T05:25:50.443Z,208.00
2019-02-21T05:26:50.407Z,228.00
2019-02-21T05:27:50.400Z,248.00
2019-02-21T05:28:50.381Z,272.00
2019-02-21T05:29:50.368Z,288.00
2019-02-21T05:30:50.363Z,320.00
2019-02-21T05:31:50.389Z,348.00
2019-02-21T05:33:00.605Z,376.00
2019-02-21T05:33:50.329Z,404.00
2019-02-21T05:34:50.321Z,436.00
2019-02-21T05:35:50.309Z,468.00
2019-02-21T05:36:50.307Z,504.00
2019-02-21T05:37:50.338Z,540.00
2019-02-21T05:38:50.276Z,580.00
2019-02-21T05:39:50.280Z,612.00
2019-02-21T05:40:50.267Z,652.00
2019-02-21T05:41:50.246Z,684.00
2019-02-21T05:42:50.240Z,724.00
2019-02-21T05:43:50.411Z,764.00
2019-02-21T05:44:50.213Z,804.00
2019-02-21T05:45:50.218Z,840.00
2019-02-21T05:46:50.206Z,892.00
2019-02-21T05:47:50.189Z,932.00
2019-02-21T05:48:50.179Z,976.00
2019-02-21T05:49:50.213Z,1020.00
2019-02-21T05:50:50.152Z,1068.00
2019-02-21T05:51:50.149Z,1112.00
2019-02-21T05:52:50.139Z,1160.00
2019-02-21T05:53:50.127Z,1204.00
2019-02-21T05:54:50.249Z,1264.00
2019-02-21T05:55:50.150Z,1316.00
2019-02-21T05:56:50.138Z,1360.00
2019-02-21T05:57:50.100Z,1408.00
2019-02-21T05:58:50.074Z,1456.00
2019-02-21T05:59:50.061Z,1508.00
2019-02-21T06:00:50.062Z,1552.00
2019-02-21T06:01:50.225Z,1608.00
2019-02-21T06:02:53.470Z,1656.00
2019-02-21T06:04:00.184Z,1704.00
2019-02-21T06:04:51.957Z,1752.00
2019-02-21T06:05:50.014Z,1804.00
2019-02-21T06:06:50.006Z,1852.00
2019-02-21T06:07:50.035Z,1904.00
2019-02-21T06:08:49.974Z,1952.00
2019-02-21T06:09:49.962Z,1996.00
2019-02-21T06:10:49.964Z,2052.00
2019-02-21T06:11:49.951Z,2100.00
2019-02-21T06:12:49.940Z,2156.00
2019-02-21T06:13:49.985Z,2204.00
2019-02-21T06:14:49.915Z,2256.00
2019-02-21T06:15:49.903Z,2304.00
2019-02-21T06:16:49.923Z,2352.00
2019-02-21T06:17:49.887Z,2400.00
2019-02-21T06:18:49.870Z,2432.00
2019-02-21T06:19:49.909Z,2496.00
2019-02-21T06:20:49.858Z,2544.00
2019-02-21T06:21:50.887Z,2592.00
2019-02-21T06:22:49.854Z,2644.00
2019-02-21T06:23:49.836Z,2688.00
2019-02-21T06:24:49.817Z,2736.00
2019-02-21T06:25:53.154Z,2780.00
2019-02-21T06:26:50.802Z,2808.00
2019-02-21T06:27:49.784Z,2872.00
2019-02-21T06:28:49.787Z,2920.00
2019-02-21T06:29:49.767Z,2964.00
2019-02-21T06:30:49.797Z,3012.00
2019-02-21T06:31:49.813Z,3056.00
2019-02-21T06:32:49.740Z,3100.00
2019-02-21T06:33:49.728Z,3148.00
2019-02-21T06:35:02.428Z,3192.00
2019-02-21T06:35:49.716Z,3232.00
2019-02-21T06:36:49.718Z,3280.00
2019-02-21T06:37:49.723Z,3320.00
2019-02-21T06:38:49.673Z,3368.00
2019-02-21T06:39:49.680Z,3408.00
2019-02-21T06:40:49.658Z,3440.00
2019-02-21T06:41:59.127Z,3492.00
2019-02-21T06:42:50.656Z,3532.00
2019-02-21T06:43:52.488Z,3572.00
2019-02-21T06:44:49.620Z,3620.00
2019-02-21T06:45:49.627Z,3656.00
2019-02-21T06:46:49.589Z,3696.00
2019-02-21T06:47:49.592Z,3740.00
2019-02-21T06:48:51.565Z,3776.00
2019-02-21T06:49:49.563Z,3820.00
2019-02-21T06:50:49.551Z,3856.00
2019-02-21T06:51:49.605Z,3896.00
2019-02-21T06:52:49.527Z,3936.00
2019-02-21T06:53:49.536Z,3976.00
2019-02-21T06:54:49.508Z,4016.00
2019-02-21T06:55:49.501Z,3936.00
2019-02-21T06:56:49.490Z,4092.00
2019-02-21T06:57:49.520Z,4132.00
2019-02-21T06:58:49.472Z,4168.00
2019-02-21T06:59:50.220Z,4208.00
2019-02-21T07:00:49.454Z,4252.00
2019-02-21T07:01:49.437Z,4292.00
2019-02-21T07:02:49.428Z,4332.00
2019-02-21T07:03:49.428Z,4372.00
2019-02-21T07:04:49.410Z,4412.00
2019-02-21T07:05:59.732Z,4460.00
2019-02-21T07:06:49.389Z,4496.00
2019-02-21T07:07:49.940Z,4532.00
2019-02-21T07:08:49.394Z,4580.00
2019-02-21T07:09:49.359Z,4616.00
2019-02-21T07:10:49.362Z,4636.00
2019-02-21T07:11:49.379Z,4692.00
2019-02-21T07:12:49.332Z,4736.00
2019-02-21T07:13:49.323Z,4784.00
2019-02-21T07:14:49.316Z,4772.00
2019-02-21T07:15:49.296Z,4840.00
2019-02-21T07:16:49.290Z,4896.00
2019-02-21T07:17:49.852Z,4936.00
2019-02-21T07:18:49.269Z,4972.00
2019-02-21T07:19:49.260Z,5016.00
2019-02-21T07:20:49.303Z,5064.00
2019-02-21T07:21:49.244Z,5112.00
2019-02-21T07:22:49.249Z,5160.00
2019-02-21T07:23:49.232Z,5204.00
2019-02-21T07:24:49.210Z,5248.00
2019-02-21T07:25:50.611Z,5296.00
2019-02-21T07:26:49.195Z,5344.00
2019-02-21T07:27:49.183Z,5392.00
2019-02-21T07:28:49.183Z,5436.00
2019-02-21T07:29:49.162Z,5480.00
2019-02-21T07:30:49.151Z,5524.00
2019-02-21T07:31:49.469Z,5356.00
2019-02-21T07:32:49.126Z,5432.00
2019-02-21T07:33:49.158Z,5500.00
2019-02-21T07:34:49.151Z,5524.00
2019-02-21T07:35:49.109Z,5584.00
2019-02-21T07:36:59.820Z,5584.00
2019-02-21T07:37:49.096Z,5644.00
2019-02-21T07:38:49.076Z,5680.00
2019-02-21T07:39:50.879Z,5648.00
2019-02-21T07:40:49.131Z,5712.00
2019-02-21T07:41:50.040Z,6000.00
2019-02-21T07:42:49.046Z,6084.00
2019-02-21T07:43:49.025Z,6160.00
2019-02-21T07:44:49.055Z,6188.00
2019-02-21T07:45:48.998Z,6264.00
2019-02-21T07:46:49.041Z,6320.00
2019-02-21T07:47:48.978Z,6360.00
2019-02-21T07:48:48.968Z,6272.00
2019-02-21T07:49:48.960Z,6444.00
2019-02-21T07:50:48.949Z,6524.00
2019-02-21T07:51:49.099Z,6532.00
2019-02-21T07:52:48.941Z,6516.00
2019-02-21T07:53:48.949Z,6596.00
2019-02-21T07:54:54.168Z,6616.00
2019-02-21T07:55:49.938Z,6776.00
2019-02-21T07:56:48.895Z,6812.00
2019-02-21T07:57:48.911Z,6860.00
2019-02-21T07:58:48.985Z,6928.00
2019-02-21T07:59:48.857Z,6984.00
2019-02-21T08:00:48.849Z,7028.00
2019-02-21T08:01:48.835Z,7060.00
2019-02-21T08:02:48.827Z,7104.00
2019-02-21T08:03:49.001Z,7152.00
2019-02-21T08:04:48.810Z,7200.00
2019-02-21T08:05:48.830Z,7252.00
2019-02-21T08:06:48.791Z,7300.00
2019-02-21T08:07:58.932Z,7344.00
2019-02-21T08:08:48.770Z,7392.00
2019-02-21T08:09:48.798Z,7444.00
2019-02-21T08:10:48.746Z,7488.00
2019-02-21T08:11:48.745Z,7548.00
2019-02-21T08:12:48.734Z,7588.00
2019-02-21T08:13:48.724Z,7640.00
2019-02-21T08:14:48.708Z,7692.00
2019-02-21T08:15:48.704Z,7740.00
2019-02-21T08:16:48.697Z,7788.00
2019-02-21T08:17:48.682Z,7832.00
2019-02-21T08:18:48.663Z,7888.00
2019-02-21T08:19:48.654Z,7940.00
2019-02-21T08:20:48.718Z,7996.00
2019-02-21T08:21:48.681Z,8048.00
2019-02-21T08:22:48.629Z,8108.00
2019-02-21T08:23:50.816Z,8172.00
2019-02-21T08:24:48.606Z,8228.00
2019-02-21T08:25:48.721Z,8284.00
2019-02-21T08:26:48.624Z,8348.00
2019-02-21T08:27:48.573Z,8416.00
2019-02-21T08:28:48.594Z,8360.00
2019-02-21T08:29:48.554Z,8600.00
2019-02-21T08:30:48.549Z,13772.00
2019-02-21T08:31:48.535Z,30432.00
2019-02-21T08:32:48.568Z,48576.00
2019-02-21T08:33:57.940Z,58400.00
2019-02-21T08:34:49.510Z,56480.00
2019-02-21T08:35:48.497Z,54816.00
2019-02-21T08:36:48.488Z,57536.00
2019-02-21T08:37:48.476Z,59712.00
2019-02-21T08:39:00.328Z,59520.00
2019-02-21T08:39:48.457Z,61056.00
2019-02-21T08:40:48.448Z,63168.00
2019-02-21T08:41:48.429Z,62080.00
2019-02-21T08:42:48.425Z,62560.00
2019-02-21T08:43:48.436Z,63072.00
2019-02-21T08:44:48.426Z,63808.00
2019-02-21T08:45:48.396Z,63776.00
2019-02-21T08:46:48.378Z,64064.00
2019-02-21T08:47:48.504Z,63264.00
2019-02-21T08:48:48.364Z,64096.00
2019-02-21T08:49:48.343Z,66112.00
2019-02-21T08:50:48.563Z,67904.00
2019-02-21T08:51:48.323Z,68608.00
2019-02-21T08:52:48.335Z,69472.00
2019-02-21T08:53:48.359Z,70560.00
2019-02-21T08:54:59.533Z,69376.00
2019-02-21T08:55:49.347Z,68672.00
2019-02-21T08:56:48.280Z,68320.00
2019-02-21T08:57:48.259Z,69504.00
2019-02-21T08:58:48.247Z,70368.00
2019-02-21T08:59:48.253Z,69440.00
2019-02-21T09:00:48.235Z,69856.00
2019-02-21T09:01:48.261Z,69408.00
2019-02-21T09:02:48.215Z,70368.00
2019-02-21T09:03:48.199Z,69952.00
2019-02-21T09:04:48.190Z,70048.00
2019-02-21T09:05:48.202Z,72128.00
2019-02-21T09:06:48.166Z,74336.00
2019-02-21T09:07:48.188Z,75168.00
2019-02-21T09:08:48.141Z,74080.00
2019-02-21T09:09:57.945Z,74624.00
2019-02-21T09:10:48.118Z,76128.00
2019-02-21T09:11:48.113Z,75392.00
2019-02-21T09:12:48.763Z,76032.00
2019-02-21T09:13:56.017Z,76352.00
2019-02-21T09:14:48.076Z,76256.00
2019-02-21T09:15:48.074Z,78080.00
2019-02-21T09:16:48.057Z,78272.00
2019-02-21T09:17:48.042Z,77536.00
2019-02-21T09:18:48.034Z,76736.00
2019-02-21T09:19:48.227Z,76352.00
2019-02-21T09:20:48.046Z,77792.00
2019-02-21T09:21:48.088Z,79552.00
2019-02-21T09:22:48.004Z,79968.00
2019-02-21T09:23:56.722Z,81248.00
2019-02-21T09:24:47.992Z,81824.00
2019-02-21T09:25:49.634Z,81184.00
2019-02-21T09:26:47.951Z,82400.00
2019-02-21T09:27:47.944Z,82496.00
2019-02-21T09:28:47.927Z,85376.00
2019-02-21T09:29:47.915Z,86208.00
2019-02-21T09:30:47.949Z,85984.00
2019-02-21T09:31:47.897Z,83328.00
2019-02-21T09:32:47.884Z,83232.00
2019-02-21T09:33:47.875Z,83168.00
2019-02-21T09:34:50.295Z,80864.00
2019-02-21T09:35:47.855Z,81664.00
2019-02-21T09:36:47.876Z,82240.00
2019-02-21T09:37:47.836Z,82528.00
2019-02-21T09:38:47.817Z,82528.00
2019-02-21T09:39:47.814Z,83552.00
2019-02-21T09:40:47.798Z,85344.00
2019-02-21T09:41:47.786Z,85024.00
2019-02-21T09:42:47.815Z,83008.00
2019-02-21T09:43:47.774Z,85920.00
2019-02-21T09:44:49.743Z,87776.00
2019-02-21T09:45:47.752Z,83584.00
2019-02-21T09:46:47.731Z,84800.00
2019-02-21T09:47:47.725Z,87008.00
2019-02-21T09:48:47.742Z,89920.00
2019-02-21T09:49:47.698Z,87808.00
2019-02-21T09:50:47.699Z,89152.00
2019-02-21T09:51:47.675Z,85632.00
2019-02-21T09:52:47.663Z,88832.00
2019-02-21T09:53:47.652Z,87872.00
2019-02-21T09:54:58.950Z,89184.00
2019-02-21T09:55:50.194Z,91040.00
2019-02-21T09:56:52.851Z,90400.00
2019-02-21T09:57:48.616Z,89984.00
2019-02-21T09:58:47.604Z,89728.00
2019-02-21T09:59:47.601Z,87200.00
2019-02-21T10:00:47.624Z,88576.00
2019-02-21T10:01:47.598Z,89280.00
2019-02-21T10:02:47.561Z,89408.00
2019-02-21T10:03:47.551Z,91712.00
2019-02-21T10:04:47.547Z,91808.00
2019-02-21T10:05:49.729Z,90400.00
2019-02-21T10:06:47.595Z,91168.00
2019-02-21T10:07:47.507Z,91968.00
2019-02-21T10:08:47.520Z,89504.00
2019-02-21T10:09:47.488Z,90656.00
2019-02-21T10:10:47.474Z,90432.00
2019-02-21T10:11:47.471Z,92736.00
2019-02-21T10:12:47.501Z,92224.00
2019-02-21T10:13:47.664Z,93536.00
2019-02-21T10:14:47.437Z,92416.00
2019-02-21T10:15:47.426Z,92576.00
2019-02-21T10:16:49.610Z,94720.00
2019-02-21T10:17:47.406Z,96064.00
2019-02-21T10:18:47.446Z,95360.00
2019-02-21T10:19:47.455Z,94560.00
2019-02-21T10:20:47.373Z,92576.00
2019-02-21T10:21:47.370Z,93152.00
2019-02-21T10:22:47.355Z,91072.00
2019-02-21T10:23:47.342Z,93952.00
2019-02-21T10:24:56.932Z,95872.00
2019-02-21T10:25:47.329Z,96256.00
2019-02-21T10:26:47.313Z,97280.00
2019-02-21T10:27:47.303Z,95712.00
2019-02-21T10:28:47.302Z,97408.00
2019-02-21T10:29:47.456Z,98528.00
2019-02-21T10:30:47.266Z,98560.00
2019-02-21T10:31:47.263Z,99296.00
2019-02-21T10:32:47.245Z,99808.00
2019-02-21T10:33:47.517Z,101728.00
2019-02-21T10:34:47.229Z,102240.00
2019-02-21T10:35:47.222Z,105408.00
2019-02-21T10:36:47.241Z,104832.00
2019-02-21T10:37:47.199Z,104576.00
2019-02-21T10:38:47.186Z,105696.00
2019-02-21T10:39:47.862Z,106048.00
2019-02-21T10:40:47.168Z,104512.00
2019-02-21T10:41:47.158Z,105792.00
2019-02-21T10:42:47.189Z,106560.00
2019-02-21T10:43:47.135Z,105024.00
2019-02-21T10:44:47.128Z,105120.00
2019-02-21T10:45:48.234Z,103296.00
2019-02-21T10:46:47.112Z,103872.00
2019-02-21T10:47:47.092Z,101920.00
2019-02-21T10:48:47.257Z,95936.00
2019-02-21T10:49:47.091Z,95392.00
2019-02-21T10:50:47.066Z,88000.00
2019-02-21T10:51:47.050Z,87488.00
2019-02-21T10:52:47.042Z,88800.00
2019-02-21T10:53:47.029Z,88256.00
2019-02-21T10:54:47.038Z,89664.00
2019-02-21T10:55:57.541Z,89824.00
2019-02-21T10:56:46.996Z,96864.00
2019-02-21T10:57:46.995Z,99808.00
2019-02-21T10:58:46.975Z,102880.00
2019-02-21T10:59:47.208Z,104768.00
2019-02-21T11:00:47.493Z,104512.00
2019-02-21T11:01:46.959Z,102336.00
2019-02-21T11:02:46.939Z,95168.00
2019-02-21T11:03:46.941Z,94720.00
2019-02-21T11:04:54.335Z,92928.00
2019-02-21T11:05:47.943Z,89760.00
2019-02-21T11:06:46.902Z,91232.00
2019-02-21T11:07:46.899Z,93152.00
2019-02-21T11:08:46.882Z,96512.00
2019-02-21T11:09:46.874Z,98144.00
2019-02-21T11:10:46.857Z,100288.00
2019-02-21T11:11:46.883Z,98624.00
2019-02-21T11:12:47.471Z,55968.00
2019-02-21T11:13:46.832Z,18592.00
2019-02-21T11:14:47.776Z,26432.00
2019-02-21T11:15:56.491Z,63008.00
2019-02-21T11:16:46.863Z,95072.00
2019-02-21T11:17:46.847Z,97824.00
2019-02-21T11:18:46.775Z,97600.00
2019-02-21T11:19:46.776Z,97792.00
2019-02-21T11:20:46.776Z,96736.00
2019-02-21T11:21:46.741Z,96576.00
2019-02-21T11:22:46.737Z,93792.00
2019-02-21T11:23:46.896Z,94976.00
2019-02-21T11:24:46.722Z,94464.00
2019-02-21T11:25:46.699Z,95232.00
2019-02-21T11:26:46.698Z,95872.00
2019-02-21T11:27:46.703Z,94496.00
2019-02-21T11:28:47.385Z,96192.00
2019-02-21T11:29:46.706Z,95680.00
2019-02-21T11:30:46.650Z,95296.00
2019-02-21T11:31:46.647Z,95040.00
2019-02-21T11:32:46.858Z,94528.00
2019-02-21T11:33:46.619Z,95264.00
2019-02-21T11:34:46.609Z,94400.00
2019-02-21T11:35:46.641Z,95744.00
2019-02-21T11:36:46.595Z,96512.00
2019-02-21T11:37:47.455Z,97120.00
2019-02-21T11:38:46.597Z,94112.00
2019-02-21T11:39:46.562Z,95008.00
2019-02-21T11:40:46.556Z,97408.00
2019-02-21T11:41:46.628Z,95168.00
2019-02-21T11:42:46.529Z,93248.00
2019-02-21T11:43:46.527Z,96864.00
2019-02-21T11:44:46.519Z,98784.00
2019-02-21T11:45:53.796Z,93184.00
2019-02-21T11:47:59.919Z,100512.00
2019-02-21T11:48:59.902Z,92704.00
2019-02-21T11:49:59.887Z,90208.00
2019-02-21T11:50:59.895Z,95840.00
2019-02-21T11:52:09.809Z,92256.00
2019-02-21T11:53:00.898Z,85248.00
2019-02-21T11:53:59.847Z,95328.00
2019-02-21T11:54:59.836Z,97120.00
2019-02-21T11:55:59.838Z,90944.00
2019-02-21T11:56:59.828Z,93696.00
2019-02-21T11:57:59.849Z,97856.00
2019-02-21T11:58:59.802Z,90112.00
2019-02-21T11:59:59.793Z,94048.00
2019-02-21T12:00:59.779Z,98784.00
2019-02-21T12:01:59.774Z,89984.00
2019-02-21T12:02:59.761Z,95744.00
2019-02-21T12:03:59.784Z,93216.00
2019-02-21T12:04:59.736Z,86976.00
2019-02-21T12:05:59.743Z,95200.00
2019-02-21T12:06:59.711Z,88864.00
2019-02-21T12:07:59.722Z,88000.00
2019-02-21T12:08:59.693Z,93248.00
2019-02-21T12:09:59.726Z,87872.00
2019-02-21T12:10:59.704Z,91168.00
2019-02-21T12:11:59.656Z,91680.00
2019-02-21T12:12:59.651Z,88896.00
2019-02-21T12:13:59.657Z,90848.00
2019-02-21T12:14:59.629Z,85600.00
2019-02-21T12:15:59.668Z,90272.00
2019-02-21T12:16:59.605Z,88448.00
2019-02-21T12:18:06.576Z,88224.00
2019-02-21T12:18:59.584Z,90976.00
2019-02-21T12:19:59.578Z,85088.00